createdAt,value
2024-01-11T00:00:47.668Z,1.00
2024-01-11T00:03:16.715Z,1.00
2024-01-11T00:05:46.113Z,1.00
2024-01-11T00:08:15.209Z,1.00
2024-01-11T00:10:43.697Z,1.00
2024-01-11T00:13:12.244Z,1.00
2024-01-11T00:15:40.870Z,1.00
2024-01-11T00:18:09.560Z,1.00
2024-01-11T00:20:38.233Z,1.00
2024-01-11T00:23:06.819Z,1.00
2024-01-11T00:25:35.395Z,1.00
2024-01-11T00:28:04.598Z,1.00
2024-01-11T00:30:33.301Z,1.00
2024-01-11T00:33:02.042Z,1.00
2024-01-11T00:35:30.726Z,1.00
2024-01-11T00:37:59.268Z,1.00
2024-01-11T00:40:27.781Z,1.00
2024-01-11T00:42:56.296Z,1.00
2024-01-11T00:45:24.828Z,1.00
2024-01-11T00:47:53.455Z,1.00
2024-01-11T00:50:22.133Z,1.00
2024-01-11T00:52:50.773Z,1.00
2024-01-11T00:55:19.348Z,1.40
2024-01-11T00:57:47.894Z,6.60
2024-01-11T01:00:16.570Z,16.20
2024-01-11T01:02:45.257Z,12.40
2024-01-11T01:05:13.857Z,11.50
2024-01-11T01:07:43.182Z,17.90
2024-01-11T01:10:11.798Z,24.80
2024-01-11T01:12:40.320Z,45.20
2024-01-11T01:15:09.422Z,57.10
2024-01-11T01:17:38.056Z,69.00
2024-01-11T01:20:07.414Z,83.00
2024-01-11T01:22:35.943Z,91.60
2024-01-11T01:25:04.788Z,98.00
2024-01-11T01:27:35.790Z,99.90
2024-01-11T01:30:04.697Z,99.90
2024-01-11T01:32:33.414Z,99.90
2024-01-11T01:35:02.005Z,99.90
2024-01-11T01:37:30.550Z,99.90
2024-01-11T01:39:59.039Z,99.90
2024-01-11T01:42:27.536Z,99.90
2024-01-11T01:44:56.067Z,99.90
2024-01-11T01:47:25.071Z,99.90
2024-01-11T01:49:54.183Z,99.90
2024-01-11T01:52:23.563Z,99.90
2024-01-11T01:54:52.815Z,99.90
2024-01-11T01:57:22.216Z,99.90
2024-01-11T01:59:56.704Z,99.90
2024-01-11T02:02:25.501Z,99.90
2024-01-11T02:04:54.334Z,99.90
2024-01-11T02:07:23.198Z,99.90
2024-01-11T02:09:51.876Z,99.90
2024-01-11T02:12:20.648Z,99.90
2024-01-11T02:14:49.284Z,99.90
2024-01-11T02:17:17.785Z,99.90
2024-01-11T02:19:46.343Z,99.90
2024-01-11T02:22:29.824Z,99.90
2024-01-11T02:24:59.751Z,99.90
2024-01-11T02:27:28.318Z,99.90
2024-01-11T02:29:58.123Z,99.90
2024-01-11T02:32:26.827Z,99.90
2024-01-11T02:34:55.607Z,99.90
2024-01-11T02:37:24.186Z,99.90
2024-01-11T02:39:52.875Z,99.90
2024-01-11T02:42:21.345Z,99.90
2024-01-11T02:44:50.022Z,99.90
2024-01-11T02:47:18.558Z,99.90
2024-01-11T02:49:47.024Z,99.90
2024-01-11T02:52:15.975Z,99.90
2024-01-11T02:54:44.483Z,99.90
2024-01-11T02:57:12.944Z,99.90
2024-01-11T02:59:42.649Z,99.90
2024-01-11T03:02:11.200Z,99.90
2024-01-11T03:04:39.817Z,99.90
2024-01-11T03:07:08.314Z,99.90
2024-01-11T03:09:36.942Z,99.90
2024-01-11T03:12:05.820Z,99.90
2024-01-11T03:14:34.450Z,99.90
2024-01-11T03:17:03.677Z,99.90
2024-01-11T03:19:32.268Z,99.90
2024-01-11T03:22:04.332Z,99.90
2024-01-11T03:24:32.807Z,99.90
2024-01-11T03:27:01.349Z,99.90
2024-01-11T03:29:29.949Z,99.90
2024-01-11T03:31:58.543Z,99.90
2024-01-11T03:34:27.284Z,99.90
2024-01-11T03:36:55.899Z,99.90
2024-01-11T03:39:24.366Z,99.90
2024-01-11T03:41:52.840Z,99.90
2024-01-11T03:44:21.385Z,99.90
2024-01-11T03:46:50.013Z,99.90
2024-01-11T03:49:18.503Z,99.90
2024-01-11T03:51:47.063Z,99.90
2024-01-11T03:54:15.657Z,99.90
2024-01-11T03:56:44.225Z,99.90
2024-01-11T03:59:13.344Z,99.90
2024-01-11T04:01:43.824Z,99.90
2024-01-11T04:04:14.281Z,99.90
2024-01-11T04:06:42.817Z,99.90
2024-01-11T04:09:11.539Z,99.90
2024-01-11T04:11:40.088Z,99.90
2024-01-11T04:14:08.819Z,99.90
2024-01-11T04:16:43.330Z,99.90
2024-01-11T04:19:12.616Z,99.90
2024-01-11T04:21:41.259Z,99.90
2024-01-11T04:24:10.190Z,99.90
2024-01-11T04:26:38.770Z,99.90
2024-01-11T04:29:08.145Z,99.90
2024-01-11T04:31:36.777Z,99.90
2024-01-11T04:34:05.391Z,99.90
2024-01-11T04:36:33.935Z,99.90
2024-01-11T04:39:02.449Z,99.90
2024-01-11T04:41:30.980Z,99.90
2024-01-11T04:43:59.535Z,99.90
2024-01-11T04:46:28.032Z,99.90
2024-01-11T04:48:56.656Z,99.90
2024-01-11T04:51:25.312Z,99.90
2024-01-11T04:53:53.883Z,99.90
2024-01-11T04:56:22.440Z,99.90
2024-01-11T04:58:51.003Z,99.90
2024-01-11T05:01:20.143Z,99.90
2024-01-11T05:03:49.993Z,99.90
2024-01-11T05:06:23.700Z,99.90
2024-01-11T05:08:56.195Z,99.90
2024-01-11T05:11:28.986Z,99.90
2024-01-11T05:13:57.776Z,99.90
2024-01-11T05:16:28.506Z,99.90
2024-01-11T05:18:58.829Z,99.90
2024-01-11T05:21:27.890Z,99.90
2024-01-11T05:23:56.413Z,99.90
2024-01-11T05:26:24.933Z,99.90
2024-01-11T05:28:53.443Z,99.90
2024-01-11T05:31:22.095Z,99.90
2024-01-11T05:33:51.479Z,99.90
2024-01-11T05:36:20.101Z,99.90
2024-01-11T05:38:48.692Z,99.90
2024-01-11T05:41:17.316Z,99.90
2024-01-11T05:43:46.218Z,99.90
2024-01-11T05:46:14.785Z,99.90
2024-01-11T05:48:44.066Z,99.90
2024-01-11T05:51:12.736Z,99.90
2024-01-11T05:53:41.409Z,99.90
2024-01-11T05:56:11.703Z,99.90
2024-01-11T05:58:41.565Z,99.90
2024-01-11T06:01:10.844Z,99.90
2024-01-11T06:03:40.755Z,99.90
2024-01-11T06:06:10.541Z,99.90
2024-01-11T06:08:39.430Z,99.90
2024-01-11T06:11:09.566Z,99.90
2024-01-11T06:13:38.446Z,99.90
2024-01-11T06:16:08.283Z,99.90
2024-01-11T06:18:38.289Z,99.90
2024-01-11T06:21:07.471Z,99.90
2024-01-11T06:23:36.120Z,99.90
2024-01-11T06:26:05.137Z,99.90
2024-01-11T06:28:36.031Z,99.90
2024-01-11T06:31:05.682Z,99.90
2024-01-11T06:33:38.947Z,99.90
2024-01-11T06:36:10.409Z,99.90
2024-01-11T06:38:39.037Z,99.90
2024-01-11T06:41:07.690Z,99.90
2024-01-11T06:43:36.393Z,99.90
2024-01-11T06:46:06.419Z,99.90
2024-01-11T06:48:35.672Z,99.90
2024-01-11T06:51:04.444Z,99.90
2024-01-11T06:53:33.000Z,99.90
2024-01-11T06:56:01.590Z,99.90
2024-01-11T06:58:30.124Z,99.90
2024-01-11T07:00:58.615Z,99.90
2024-01-11T07:03:27.576Z,99.90
2024-01-11T07:05:56.236Z,99.90
2024-01-11T07:08:24.873Z,99.90
2024-01-11T07:10:53.713Z,99.90
2024-01-11T07:13:22.766Z,99.90
2024-01-11T07:15:53.717Z,99.90
2024-01-11T07:18:22.379Z,99.90
2024-01-11T07:20:51.023Z,99.90
2024-01-11T07:23:19.905Z,99.90
2024-01-11T07:25:48.755Z,99.90
2024-01-11T07:28:19.117Z,99.90
2024-01-11T07:30:50.625Z,99.90
2024-01-11T07:33:19.444Z,99.90
2024-01-11T07:35:48.400Z,99.90
2024-01-11T07:38:17.049Z,99.90
2024-01-11T07:40:45.652Z,99.90
2024-01-11T07:43:14.249Z,99.90
2024-01-11T07:45:42.866Z,99.90
2024-01-11T07:48:11.436Z,99.90
2024-01-11T07:50:40.052Z,99.90
2024-01-11T07:53:08.640Z,99.90
2024-01-11T07:55:37.495Z,99.90
2024-01-11T07:58:06.053Z,99.90
2024-01-11T08:00:34.578Z,99.90
2024-01-11T08:03:03.247Z,99.90
2024-01-11T08:05:31.840Z,99.90
2024-01-11T08:08:03.737Z,99.90
2024-01-11T08:10:35.883Z,99.90
2024-01-11T08:13:04.945Z,99.90
2024-01-11T08:15:33.513Z,99.90
2024-01-11T08:18:02.759Z,99.90
2024-01-11T08:20:31.409Z,99.90
2024-01-11T08:23:00.366Z,99.90
2024-01-11T08:25:28.964Z,99.90
2024-01-11T08:27:57.762Z,99.90
2024-01-11T08:30:26.545Z,99.90
2024-01-11T08:32:55.383Z,99.90
2024-01-11T08:35:24.631Z,99.90
2024-01-11T08:37:53.177Z,99.90
2024-01-11T08:40:21.716Z,99.90
2024-01-11T08:42:50.161Z,99.90
2024-01-11T08:45:19.815Z,99.90
2024-01-11T08:47:49.544Z,99.90
2024-01-11T08:50:22.730Z,99.90
2024-01-11T08:52:52.704Z,99.90
2024-01-11T08:55:21.286Z,99.90
2024-01-11T08:57:49.857Z,99.90
2024-01-11T09:00:21.541Z,99.90
2024-01-11T09:02:50.170Z,99.90
2024-01-11T09:05:18.751Z,99.90
2024-01-11T09:07:47.282Z,99.90
2024-01-11T09:10:15.808Z,99.90
2024-01-11T09:12:44.475Z,99.90
2024-01-11T09:15:13.079Z,99.90
2024-01-11T09:17:41.788Z,99.90
2024-01-11T09:20:11.452Z,99.90
2024-01-11T09:22:39.984Z,99.90
2024-01-11T09:25:10.326Z,99.90
2024-01-11T09:27:38.942Z,99.90
2024-01-11T09:30:08.273Z,99.90
2024-01-11T09:32:37.877Z,99.90
2024-01-11T09:35:06.905Z,99.90
2024-01-11T09:37:35.431Z,99.90
2024-01-11T09:40:03.996Z,99.90
2024-01-11T09:42:32.588Z,99.90
2024-01-11T09:45:03.302Z,99.90
2024-01-11T09:47:33.141Z,99.90
2024-01-11T09:50:04.250Z,99.90
2024-01-11T09:52:37.234Z,99.90
2024-01-11T09:55:06.361Z,99.90
2024-01-11T09:57:37.250Z,99.90
2024-01-11T10:00:11.099Z,99.90
2024-01-11T10:02:39.915Z,99.90
2024-01-11T10:05:10.010Z,99.90
2024-01-11T10:07:40.329Z,99.90
2024-01-11T10:10:09.471Z,99.90
2024-01-11T10:12:39.220Z,99.90
2024-01-11T10:15:11.627Z,99.90
2024-01-11T10:17:46.355Z,99.90
2024-01-11T10:20:19.467Z,99.90
2024-01-11T10:22:49.420Z,99.90
2024-01-11T10:25:19.807Z,99.90
2024-01-11T10:27:48.505Z,99.90
2024-01-11T10:30:28.202Z,99.90
2024-01-11T10:33:01.109Z,99.90
2024-01-11T10:35:30.497Z,99.90
2024-01-11T10:38:01.368Z,99.90
2024-01-11T10:40:30.664Z,99.90
2024-01-11T10:43:03.513Z,99.90
2024-01-11T10:45:40.723Z,99.90
2024-01-11T10:48:15.749Z,99.90
2024-01-11T10:50:51.771Z,99.90
2024-01-11T10:53:47.927Z,99.90
2024-01-11T10:56:20.395Z,99.90
2024-01-11T10:58:50.137Z,99.90
2024-01-11T11:01:20.452Z,99.90
2024-01-11T11:03:50.854Z,99.90
2024-01-11T11:06:22.767Z,99.90
2024-01-11T11:08:52.861Z,99.90
2024-01-11T11:11:22.992Z,99.90
2024-01-11T11:13:52.088Z,99.90
2024-01-11T11:16:21.885Z,99.90
2024-01-11T11:18:53.100Z,99.90
2024-01-11T11:21:22.971Z,99.90
2024-01-11T11:23:52.592Z,99.90
2024-01-11T11:26:21.328Z,99.90
2024-01-11T11:28:53.073Z,99.90
2024-01-11T11:31:43.791Z,99.90
2024-01-11T11:34:16.350Z,99.90
2024-01-11T11:36:45.250Z,99.90
2024-01-11T11:39:13.852Z,99.90
2024-01-11T11:41:44.496Z,99.90
2024-01-11T11:44:18.003Z,99.90
2024-01-11T11:46:47.158Z,99.90
2024-01-11T11:49:16.168Z,99.90
2024-01-11T11:51:45.947Z,99.90
2024-01-11T11:54:16.703Z,99.90
2024-01-11T11:56:45.363Z,99.90
2024-01-11T11:59:14.036Z,99.90
2024-01-11T12:01:42.963Z,99.90
2024-01-11T12:04:11.577Z,99.90
2024-01-11T12:06:40.502Z,99.90
2024-01-11T12:09:10.701Z,99.90
2024-01-11T12:11:39.723Z,99.90
2024-01-11T12:14:08.286Z,99.90
2024-01-11T12:16:36.845Z,99.90
2024-01-11T12:19:07.206Z,99.90
2024-01-11T12:21:35.874Z,99.90
2024-01-11T12:24:04.894Z,99.90
2024-01-11T12:26:33.532Z,99.90
2024-01-11T12:29:04.199Z,99.90
2024-01-11T12:31:32.865Z,99.90
2024-01-11T12:34:01.756Z,99.90
2024-01-11T12:36:31.437Z,99.90
2024-01-11T12:39:00.847Z,99.90
2024-01-11T12:41:29.497Z,99.90
2024-01-11T12:43:58.594Z,99.90
2024-01-11T12:46:27.679Z,99.90
2024-01-11T12:48:56.651Z,99.90
2024-01-11T12:51:26.340Z,99.90
2024-01-11T12:53:55.755Z,99.90
2024-01-11T12:56:24.881Z,99.90
2024-01-11T12:58:53.549Z,99.90
2024-01-11T13:01:22.609Z,99.90
2024-01-11T13:03:51.557Z,99.90
2024-01-11T13:06:21.479Z,99.90
2024-01-11T13:08:50.168Z,99.90
2024-01-11T13:11:19.275Z,99.90
2024-01-11T13:13:49.390Z,99.90
2024-01-11T13:16:18.560Z,99.90
2024-01-11T13:18:47.728Z,99.90
2024-01-11T13:21:16.501Z,99.90
2024-01-11T13:23:45.266Z,99.90
2024-01-11T13:26:13.935Z,99.90
2024-01-11T13:28:42.735Z,99.90
2024-01-11T13:31:11.798Z,99.90
2024-01-11T13:33:41.215Z,99.90
2024-01-11T13:36:09.944Z,99.90
2024-01-11T13:38:38.920Z,99.90
2024-01-11T13:41:10.064Z,99.90
2024-01-11T13:43:38.902Z,99.90
2024-01-11T13:46:07.540Z,99.90
2024-01-11T13:48:36.291Z,99.90
2024-01-11T13:51:05.745Z,99.90
2024-01-11T13:53:34.851Z,99.90
2024-01-11T13:56:03.789Z,99.90
2024-01-11T13:58:32.836Z,99.90
2024-01-11T14:01:01.529Z,99.90
2024-01-11T14:03:30.196Z,99.90
2024-01-11T14:05:59.291Z,99.90
2024-01-11T14:08:28.448Z,99.90
2024-01-11T14:10:57.092Z,99.90
2024-01-11T14:13:25.735Z,99.90
2024-01-11T14:15:55.765Z,99.90
2024-01-11T14:18:25.739Z,99.90
2024-01-11T14:20:54.533Z,99.90
2024-01-11T14:23:23.153Z,99.90
2024-01-11T14:25:51.925Z,99.90
2024-01-11T14:28:20.497Z,99.90
2024-01-11T14:30:49.085Z,99.90
2024-01-11T14:33:17.759Z,99.90
2024-01-11T14:35:46.353Z,99.90
2024-01-11T14:38:15.022Z,99.90
2024-01-11T14:40:43.933Z,99.90
2024-01-11T14:43:12.537Z,99.90
2024-01-11T14:45:41.128Z,99.90
2024-01-11T14:48:10.306Z,99.90
2024-01-11T14:50:39.013Z,99.90
2024-01-11T14:53:07.594Z,99.90
2024-01-11T14:55:39.406Z,99.90
2024-01-11T14:58:07.913Z,99.90
2024-01-11T15:00:36.482Z,99.90
2024-01-11T15:03:06.356Z,99.90
2024-01-11T15:05:35.197Z,99.90
2024-01-11T15:08:04.288Z,99.90
2024-01-11T15:10:33.183Z,99.90
2024-01-11T15:13:01.776Z,99.90
2024-01-11T15:15:30.993Z,99.90
2024-01-11T15:18:00.279Z,99.90
2024-01-11T15:20:29.208Z,99.90
2024-01-11T15:22:57.973Z,99.90
2024-01-11T15:25:28.586Z,99.90
2024-01-11T15:27:57.190Z,99.90
2024-01-11T15:30:26.030Z,99.90
2024-01-11T15:32:56.244Z,99.90
2024-01-11T15:35:26.365Z,99.90
2024-01-11T15:37:55.717Z,99.90
2024-01-11T15:40:24.330Z,99.90
2024-01-11T15:42:52.900Z,99.90
2024-01-11T15:45:22.359Z,99.90
2024-01-11T15:47:51.276Z,99.90
2024-01-11T15:50:21.070Z,99.90
2024-01-11T15:52:49.935Z,99.90
2024-01-11T15:55:18.933Z,99.90
2024-01-11T15:57:47.732Z,99.90
2024-01-11T16:00:17.025Z,99.90
2024-01-11T16:02:46.667Z,99.90
2024-01-11T16:05:15.659Z,99.90
2024-01-11T16:07:44.567Z,99.90
2024-01-11T16:10:13.417Z,99.90
2024-01-11T16:12:42.796Z,99.90
2024-01-11T16:15:13.030Z,99.90
2024-01-11T16:17:45.411Z,99.90
2024-01-11T16:20:14.730Z,99.90
2024-01-11T16:22:43.544Z,99.90
2024-01-11T16:25:12.518Z,99.90
2024-01-11T16:27:42.019Z,99.90
2024-01-11T16:30:11.871Z,99.90
2024-01-11T16:32:40.892Z,99.90
2024-01-11T16:35:10.119Z,99.90
2024-01-11T16:37:39.092Z,99.90
2024-01-11T16:40:08.550Z,99.90
2024-01-11T16:42:38.831Z,99.90
2024-01-11T16:45:08.192Z,99.90
2024-01-11T16:47:39.024Z,99.90
2024-01-11T16:50:09.912Z,99.90
2024-01-11T16:52:38.925Z,99.90
2024-01-11T16:55:07.896Z,99.90
2024-01-11T16:57:36.852Z,99.90
2024-01-11T17:00:06.016Z,99.90
2024-01-11T17:02:34.956Z,99.90
2024-01-11T17:05:04.005Z,99.90
2024-01-11T17:07:32.923Z,99.90
2024-01-11T17:10:01.774Z,99.90
2024-01-11T17:12:30.636Z,99.90
2024-01-11T17:15:00.258Z,99.90
2024-01-11T17:17:29.590Z,99.90
2024-01-11T17:19:58.383Z,99.90
2024-01-11T17:22:27.376Z,99.90
2024-01-11T17:24:57.308Z,99.90
2024-01-11T17:27:26.198Z,99.90
2024-01-11T17:29:55.179Z,99.90
2024-01-11T17:32:24.072Z,99.90
2024-01-11T17:34:57.585Z,99.90
2024-01-11T17:37:27.568Z,99.90
2024-01-11T17:39:56.611Z,99.90
2024-01-11T17:42:25.420Z,99.90
2024-01-11T17:44:54.415Z,99.90
2024-01-11T17:47:23.299Z,99.90
2024-01-11T17:49:52.340Z,99.90
2024-01-11T17:52:24.643Z,99.90
2024-01-11T17:54:53.395Z,99.90
2024-01-11T17:57:24.296Z,99.90
2024-01-11T17:59:53.974Z,99.90
2024-01-11T18:02:22.884Z,99.90
2024-01-11T18:04:51.882Z,99.90
2024-01-11T18:07:23.809Z,99.90
2024-01-11T18:09:52.950Z,99.90
2024-01-11T18:12:21.961Z,99.90
2024-01-11T18:14:51.846Z,99.90
2024-01-11T18:17:20.714Z,99.90
2024-01-11T18:19:50.646Z,99.90
2024-01-11T18:22:19.511Z,99.90
2024-01-11T18:24:48.839Z,99.90
2024-01-11T18:27:17.665Z,99.90
2024-01-11T18:29:46.488Z,99.90
2024-01-11T18:32:15.398Z,99.90
2024-01-11T18:34:44.256Z,99.90
2024-01-11T18:37:13.038Z,99.90
2024-01-11T18:39:47.360Z,99.90
2024-01-11T18:42:16.202Z,99.90
2024-01-11T18:44:45.110Z,99.90
2024-01-11T18:47:13.958Z,99.90
2024-01-11T18:49:42.801Z,90.30
2024-01-11T18:52:11.626Z,88.00
2024-01-11T18:54:40.493Z,78.80
2024-01-11T18:57:09.728Z,77.10
2024-01-11T18:59:38.458Z,75.00
2024-01-11T19:02:07.413Z,85.50
2024-01-11T19:04:37.021Z,92.10
2024-01-11T19:07:06.119Z,96.70
2024-01-11T19:09:34.983Z,99.90
2024-01-11T19:12:04.307Z,99.90
2024-01-11T19:14:33.638Z,99.90
2024-01-11T19:17:02.625Z,99.90
2024-01-11T19:19:31.575Z,99.90
2024-01-11T19:22:01.210Z,99.90
2024-01-11T19:24:31.691Z,99.90
2024-01-11T19:27:00.480Z,99.90
2024-01-11T19:29:30.225Z,98.10
2024-01-11T19:31:59.072Z,98.30
2024-01-11T19:34:27.983Z,98.80
2024-01-11T19:36:56.932Z,99.90
2024-01-11T19:39:25.662Z,99.90
2024-01-11T19:41:54.674Z,99.90
2024-01-11T19:44:25.894Z,99.90
2024-01-11T19:46:55.141Z,99.90
2024-01-11T19:49:24.146Z,99.90
2024-01-11T19:51:53.036Z,99.90
2024-01-11T19:54:21.821Z,99.90
2024-01-11T19:56:50.721Z,99.90
2024-01-11T19:59:20.170Z,99.90
2024-01-11T20:01:51.363Z,97.40
2024-01-11T20:04:22.258Z,97.30
2024-01-11T20:06:51.987Z,95.40
2024-01-11T20:09:21.920Z,93.70
2024-01-11T20:11:50.888Z,94.70
2024-01-11T20:14:19.900Z,92.50
2024-01-11T20:16:48.944Z,92.80
2024-01-11T20:19:18.962Z,90.50
2024-01-11T20:21:47.808Z,87.90
2024-01-11T20:24:16.659Z,85.40
2024-01-11T20:26:45.470Z,89.00
2024-01-11T20:29:14.441Z,68.30
2024-01-11T20:31:43.391Z,55.00
2024-01-11T20:34:15.139Z,49.50
2024-01-11T20:36:46.592Z,61.60
2024-01-11T20:39:16.134Z,46.70
2024-01-11T20:41:47.400Z,53.70
2024-01-11T20:44:18.212Z,52.90
2024-01-11T20:46:47.082Z,50.80
2024-01-11T20:49:15.889Z,57.60
2024-01-11T20:51:45.051Z,65.40
2024-01-11T20:54:13.953Z,67.60
2024-01-11T20:56:46.616Z,75.70
2024-01-11T20:59:15.563Z,32.30
2024-01-11T21:01:45.094Z,53.30
2024-01-11T21:04:14.042Z,55.10
2024-01-11T21:06:42.946Z,51.40
2024-01-11T21:09:12.879Z,29.70
2024-01-11T21:11:42.303Z,26.40
2024-01-11T21:14:12.514Z,29.20
2024-01-11T21:16:41.410Z,24.40
2024-01-11T21:19:10.329Z,20.70
2024-01-11T21:21:42.906Z,3.50
2024-01-11T21:24:11.767Z,1.90
2024-01-11T21:26:40.616Z,13.10
2024-01-11T21:29:09.585Z,14.50
2024-01-11T21:31:38.360Z,23.30
2024-01-11T21:34:07.210Z,28.20
2024-01-11T21:36:37.170Z,46.00
2024-01-11T21:39:06.076Z,71.90
2024-01-11T21:41:35.087Z,85.70
2024-01-11T21:44:04.333Z,95.40
2024-01-11T21:46:33.614Z,98.70
2024-01-11T21:49:05.906Z,99.00
2024-01-11T21:51:34.922Z,99.90
2024-01-11T21:54:03.801Z,99.90
2024-01-11T21:56:33.086Z,99.90
2024-01-11T21:59:01.811Z,99.90
2024-01-11T22:01:31.821Z,99.90
2024-01-11T22:04:01.745Z,99.90
2024-01-11T22:06:30.690Z,99.90
2024-01-11T22:08:59.978Z,99.90
2024-01-11T22:11:31.208Z,99.90
2024-01-11T22:14:00.011Z,98.80
2024-01-11T22:16:28.593Z,80.80
2024-01-11T22:18:57.598Z,60.80
2024-01-11T22:21:29.665Z,28.20
2024-01-11T22:23:58.476Z,15.10
2024-01-11T22:26:28.992Z,12.20
2024-01-11T22:28:58.280Z,5.30
2024-01-11T22:31:32.785Z,3.10
2024-01-11T22:34:02.106Z,5.30
2024-01-11T22:36:31.785Z,6.70
2024-01-11T22:39:00.555Z,1.00
2024-01-11T22:41:31.575Z,1.00
2024-01-11T22:44:01.062Z,1.00
2024-01-11T22:46:29.582Z,1.00
2024-01-11T22:48:58.308Z,1.00
2024-01-11T22:51:26.899Z,1.00
2024-01-11T22:53:55.514Z,1.00
2024-01-11T22:56:24.853Z,1.00
2024-01-11T22:58:53.593Z,1.00
2024-01-11T23:01:22.260Z,1.00
2024-01-11T23:03:53.560Z,1.00
2024-01-11T23:06:22.309Z,1.00
2024-01-11T23:08:51.231Z,1.00
2024-01-11T23:11:20.105Z,1.00
2024-01-11T23:13:48.677Z,1.00
2024-01-11T23:16:17.278Z,1.00
2024-01-11T23:18:46.414Z,1.00
2024-01-11T23:21:15.061Z,1.00
2024-01-11T23:23:43.587Z,1.00
2024-01-11T23:26:12.169Z,1.00
2024-01-11T23:28:40.729Z,2.00
2024-01-11T23:31:10.457Z,5.80
2024-01-11T23:33:39.343Z,23.40
2024-01-11T23:36:08.503Z,33.10
2024-01-11T23:38:37.056Z,38.30
2024-01-11T23:41:05.702Z,33.30
2024-01-11T23:43:34.267Z,31.50
2024-01-11T23:46:02.944Z,20.90
2024-01-11T23:48:34.990Z,2.80
2024-01-11T23:51:03.787Z,9.60
2024-01-11T23:53:32.447Z,7.80
2024-01-11T23:56:02.290Z,12.00
2024-01-11T23:58:30.998Z,12.00
